sensor_id;sensor_type;location;lat;lon;timestamp;P1;durP1;ratioP1;P2;durP2;ratioP2
39102;SDS011;24847;48.218;16.414;2023-05-07T00:00:28;1.92;;;1.13;;
39102;SDS011;24847;48.218;16.414;2023-05-07T00:05:31;0.88;;;0.77;;
39102;SDS011;24847;48.218;16.414;2023-05-07T00:10:35;0.90;;;0.80;;
39102;SDS011;24847;48.218;16.414;2023-05-07T00:15:37;1.20;;;1.10;;
39102;SDS011;24847;48.218;16.414;2023-05-07T00:20:40;1.92;;;1.08;;
39102;SDS011;24847;48.218;16.414;2023-05-07T00:25:43;1.45;;;1.17;;
39102;SDS011;24847;48.218;16.414;2023-05-07T00:30:45;1.38;;;1.05;;
39102;SDS011;24847;48.218;16.414;2023-05-07T00:35:48;1.88;;;1.10;;
39102;SDS011;24847;48.218;16.414;2023-05-07T00:40:52;1.35;;;1.02;;
39102;SDS011;24847;48.218;16.414;2023-05-07T00:45:54;1.67;;;1.23;;
39102;SDS011;24847;48.218;16.414;2023-05-07T00:50:56;1.65;;;1.08;;
39102;SDS011;24847;48.218;16.414;2023-05-07T00:56:00;1.50;;;1.40;;
39102;SDS011;24847;48.218;16.414;2023-05-07T01:01:03;1.10;;;1.00;;
39102;SDS011;24847;48.218;16.414;2023-05-07T01:06:05;2.03;;;1.13;;
39102;SDS011;24847;48.218;16.414;2023-05-07T01:11:11;1.15;;;1.05;;
39102;SDS011;24847;48.218;16.414;2023-05-07T01:16:13;1.00;;;0.93;;
39102;SDS011;24847;48.218;16.414;2023-05-07T01:21:16;0.93;;;0.82;;
39102;SDS011;24847;48.218;16.414;2023-05-07T01:26:21;1.02;;;0.95;;
39102;SDS011;24847;48.218;16.414;2023-05-07T01:31:24;1.60;;;0.98;;
39102;SDS011;24847;48.218;16.414;2023-05-07T01:36:26;1.45;;;1.30;;
39102;SDS011;24847;48.218;16.414;2023-05-07T01:41:32;1.73;;;1.10;;
39102;SDS011;24847;48.218;16.414;2023-05-07T01:46:34;1.33;;;1.20;;
39102;SDS011;24847;48.218;16.414;2023-05-07T01:51:37;1.52;;;1.05;;
39102;SDS011;24847;48.218;16.414;2023-05-07T01:56:40;1.60;;;1.00;;
39102;SDS011;24847;48.218;16.414;2023-05-07T02:01:44;1.13;;;0.80;;
39102;SDS011;24847;48.218;16.414;2023-05-07T02:06:48;1.13;;;0.93;;
39102;SDS011;24847;48.218;16.414;2023-05-07T02:11:51;0.65;;;0.65;;
39102;SDS011;24847;48.218;16.414;2023-05-07T02:16:54;1.08;;;0.98;;
39102;SDS011;24847;48.218;16.414;2023-05-07T02:21:56;1.58;;;1.00;;
39102;SDS011;24847;48.218;16.414;2023-05-07T02:26:59;1.00;;;0.77;;
39102;SDS011;24847;48.218;16.414;2023-05-07T02:32:02;1.10;;;0.85;;
39102;SDS011;24847;48.218;16.414;2023-05-07T02:37:05;1.23;;;1.13;;
39102;SDS011;24847;48.218;16.414;2023-05-07T02:42:08;1.50;;;1.40;;
39102;SDS011;24847;48.218;16.414;2023-05-07T02:47:11;3.00;;;2.00;;
39102;SDS011;24847;48.218;16.414;2023-05-07T02:52:15;2.22;;;1.95;;
39102;SDS011;24847;48.218;16.414;2023-05-07T02:57:19;2.05;;;1.60;;
39102;SDS011;24847;48.218;16.414;2023-05-07T03:02:21;2.58;;;2.28;;
39102;SDS011;24847;48.218;16.414;2023-05-07T03:07:23;3.63;;;2.60;;
39102;SDS011;24847;48.218;16.414;2023-05-07T03:12:27;2.70;;;2.42;;
39102;SDS011;24847;48.218;16.414;2023-05-07T03:17:29;3.00;;;2.60;;
39102;SDS011;24847;48.218;16.414;2023-05-07T03:22:31;2.60;;;2.30;;
39102;SDS011;24847;48.218;16.414;2023-05-07T03:27:35;2.75;;;2.55;;
39102;SDS011;24847;48.218;16.414;2023-05-07T03:32:37;4.13;;;2.85;;
39102;SDS011;24847;48.218;16.414;2023-05-07T03:37:40;2.72;;;2.53;;
39102;SDS011;24847;48.218;16.414;2023-05-07T03:42:43;3.15;;;2.72;;
39102;SDS011;24847;48.218;16.414;2023-05-07T03:47:46;2.65;;;2.40;;
39102;SDS011;24847;48.218;16.414;2023-05-07T03:52:48;3.15;;;2.90;;
39102;SDS011;24847;48.218;16.414;2023-05-07T03:57:51;3.95;;;3.55;;
39102;SDS011;24847;48.218;16.414;2023-05-07T04:02:54;4.40;;;4.00;;
39102;SDS011;24847;48.218;16.414;2023-05-07T04:07:57;4.35;;;3.95;;
39102;SDS011;24847;48.218;16.414;2023-05-07T04:13:00;4.65;;;4.25;;
39102;SDS011;24847;48.218;16.414;2023-05-07T04:18:03;5.53;;;4.75;;
39102;SDS011;24847;48.218;16.414;2023-05-07T04:23:05;6.32;;;5.72;;
39102;SDS011;24847;48.218;16.414;2023-05-07T04:28:09;6.50;;;5.68;;
39102;SDS011;24847;48.218;16.414;2023-05-07T04:33:11;6.53;;;5.90;;
39102;SDS011;24847;48.218;16.414;2023-05-07T04:38:16;7.25;;;6.55;;
39102;SDS011;24847;48.218;16.414;2023-05-07T04:43:20;8.90;;;7.18;;
39102;SDS011;24847;48.218;16.414;2023-05-07T04:48:23;7.20;;;6.53;;
39102;SDS011;24847;48.218;16.414;2023-05-07T04:53:25;8.15;;;7.35;;
39102;SDS011;24847;48.218;16.414;2023-05-07T04:58:29;7.32;;;6.63;;
39102;SDS011;24847;48.218;16.414;2023-05-07T05:03:31;8.55;;;7.75;;
39102;SDS011;24847;48.218;16.414;2023-05-07T05:08:34;9.68;;;8.05;;
39102;SDS011;24847;48.218;16.414;2023-05-07T05:13:37;10.00;;;9.00;;
39102;SDS011;24847;48.218;16.414;2023-05-07T05:18:40;8.93;;;8.02;;
39102;SDS011;24847;48.218;16.414;2023-05-07T05:23:43;9.55;;;8.55;;
39102;SDS011;24847;48.218;16.414;2023-05-07T05:28:46;11.25;;;9.32;;
39102;SDS011;24847;48.218;16.414;2023-05-07T05:33:49;10.65;;;9.65;;
39102;SDS011;24847;48.218;16.414;2023-05-07T05:38:51;10.90;;;9.82;;
39102;SDS011;24847;48.218;16.414;2023-05-07T05:43:54;10.88;;;9.82;;
39102;SDS011;24847;48.218;16.414;2023-05-07T05:48:57;11.10;;;10.00;;
39102;SDS011;24847;48.218;16.414;2023-05-07T05:53:59;11.75;;;10.05;;
39102;SDS011;24847;48.218;16.414;2023-05-07T05:59:03;11.32;;;10.15;;
39102;SDS011;24847;48.218;16.414;2023-05-07T06:04:05;11.57;;;10.40;;
39102;SDS011;24847;48.218;16.414;2023-05-07T06:09:07;12.25;;;11.05;;
39102;SDS011;24847;48.218;16.414;2023-05-07T06:14:11;9.52;;;8.55;;
39102;SDS011;24847;48.218;16.414;2023-05-07T06:19:13;11.98;;;10.65;;
39102;SDS011;24847;48.218;16.414;2023-05-07T06:24:18;11.65;;;10.45;;
39102;SDS011;24847;48.218;16.414;2023-05-07T06:29:21;13.32;;;12.02;;
39102;SDS011;24847;48.218;16.414;2023-05-07T06:34:25;13.07;;;11.68;;
39102;SDS011;24847;48.218;16.414;2023-05-07T06:39:28;12.40;;;11.18;;
39102;SDS011;24847;48.218;16.414;2023-05-07T06:44:31;11.35;;;10.18;;
39102;SDS011;24847;48.218;16.414;2023-05-07T06:49:34;11.30;;;10.10;;
39102;SDS011;24847;48.218;16.414;2023-05-07T06:54:36;11.57;;;10.38;;
39102;SDS011;24847;48.218;16.414;2023-05-07T06:59:39;11.07;;;10.00;;
39102;SDS011;24847;48.218;16.414;2023-05-07T07:04:41;12.13;;;11.00;;
39102;SDS011;24847;48.218;16.414;2023-05-07T07:09:45;11.45;;;10.32;;
39102;SDS011;24847;48.218;16.414;2023-05-07T07:14:48;11.85;;;10.75;;
39102;SDS011;24847;48.218;16.414;2023-05-07T07:19:50;12.50;;;10.88;;
39102;SDS011;24847;48.218;16.414;2023-05-07T07:24:53;11.77;;;10.68;;
39102;SDS011;24847;48.218;16.414;2023-05-07T07:29:57;11.00;;;9.90;;
39102;SDS011;24847;48.218;16.414;2023-05-07T07:34:59;12.70;;;10.75;;
39102;SDS011;24847;48.218;16.414;2023-05-07T07:40:01;11.68;;;10.57;;
39102;SDS011;24847;48.218;16.414;2023-05-07T07:45:07;12.00;;;10.77;;
39102;SDS011;24847;48.218;16.414;2023-05-07T07:50:10;10.90;;;9.88;;
39102;SDS011;24847;48.218;16.414;2023-05-07T07:55:14;12.32;;;10.82;;
39102;SDS011;24847;48.218;16.414;2023-05-07T08:00:22;10.80;;;9.70;;
39102;SDS011;24847;48.218;16.414;2023-05-07T08:05:26;11.20;;;10.10;;
39102;SDS011;24847;48.218;16.414;2023-05-07T08:10:28;11.65;;;10.52;;
39102;SDS011;24847;48.218;16.414;2023-05-07T08:15:35;13.43;;;11.35;;
39102;SDS011;24847;48.218;16.414;2023-05-07T08:20:37;11.90;;;10.73;;
39102;SDS011;24847;48.218;16.414;2023-05-07T08:25:41;9.57;;;8.60;;
39102;SDS011;24847;48.218;16.414;2023-05-07T08:30:45;11.60;;;10.38;;
39102;SDS011;24847;48.218;16.414;2023-05-07T08:35:47;11.10;;;10.02;;
39102;SDS011;24847;48.218;16.414;2023-05-07T08:40:49;11.45;;;10.30;;
39102;SDS011;24847;48.218;16.414;2023-05-07T08:45:53;11.48;;;10.38;;
39102;SDS011;24847;48.218;16.414;2023-05-07T08:50:57;14.98;;;13.43;;
39102;SDS011;24847;48.218;16.414;2023-05-07T08:55:59;10.45;;;9.32;;
39102;SDS011;24847;48.218;16.414;2023-05-07T09:01:09;10.10;;;9.10;;
39102;SDS011;24847;48.218;16.414;2023-05-07T09:06:15;9.32;;;8.27;;
39102;SDS011;24847;48.218;16.414;2023-05-07T09:11:19;9.68;;;8.70;;
39102;SDS011;24847;48.218;16.414;2023-05-07T09:16:24;9.45;;;8.48;;
39102;SDS011;24847;48.218;16.414;2023-05-07T09:21:27;10.07;;;8.75;;
39102;SDS011;24847;48.218;16.414;2023-05-07T09:26:30;9.05;;;8.15;;
39102;SDS011;24847;48.218;16.414;2023-05-07T09:31:37;8.80;;;7.90;;
39102;SDS011;24847;48.218;16.414;2023-05-07T09:36:39;8.85;;;8.00;;
39102;SDS011;24847;48.218;16.414;2023-05-07T09:41:45;7.40;;;6.70;;
39102;SDS011;24847;48.218;16.414;2023-05-07T09:46:53;7.13;;;6.43;;
39102;SDS011;24847;48.218;16.414;2023-05-07T09:51:56;7.05;;;5.95;;
39102;SDS011;24847;48.218;16.414;2023-05-07T09:57:02;7.95;;;7.15;;
39102;SDS011;24847;48.218;16.414;2023-05-07T10:02:06;7.78;;;7.00;;
39102;SDS011;24847;48.218;16.414;2023-05-07T10:07:11;7.55;;;6.85;;
39102;SDS011;24847;48.218;16.414;2023-05-07T10:12:14;9.80;;;8.50;;
39102;SDS011;24847;48.218;16.414;2023-05-07T10:17:19;8.25;;;6.88;;
39102;SDS011;24847;48.218;16.414;2023-05-07T10:22:22;7.68;;;6.97;;
39102;SDS011;24847;48.218;16.414;2023-05-07T10:27:26;6.70;;;6.05;;
39102;SDS011;24847;48.218;16.414;2023-05-07T10:32:35;6.68;;;6.07;;
39102;SDS011;24847;48.218;16.414;2023-05-07T10:37:42;7.03;;;6.32;;
39102;SDS011;24847;48.218;16.414;2023-05-07T10:42:55;7.05;;;6.35;;
39102;SDS011;24847;48.218;16.414;2023-05-07T10:48:07;7.55;;;6.85;;
39102;SDS011;24847;48.218;16.414;2023-05-07T10:53:22;7.05;;;6.40;;
39102;SDS011;24847;48.218;16.414;2023-05-07T10:58:27;6.47;;;5.85;;
39102;SDS011;24847;48.218;16.414;2023-05-07T11:03:31;6.50;;;5.90;;
39102;SDS011;24847;48.218;16.414;2023-05-07T11:13:57;6.18;;;5.57;;
39102;SDS011;24847;48.218;16.414;2023-05-07T11:19:01;6.63;;;5.97;;
39102;SDS011;24847;48.218;16.414;2023-05-07T11:24:03;6.45;;;5.88;;
39102;SDS011;24847;48.218;16.414;2023-05-07T11:29:10;7.28;;;5.40;;
39102;SDS011;24847;48.218;16.414;2023-05-07T11:34:14;5.90;;;5.40;;
39102;SDS011;24847;48.218;16.414;2023-05-07T11:39:25;5.80;;;5.22;;
39102;SDS011;24847;48.218;16.414;2023-05-07T11:44:44;6.10;;;5.50;;
39102;SDS011;24847;48.218;16.414;2023-05-07T11:49:50;6.07;;;5.53;;
39102;SDS011;24847;48.218;16.414;2023-05-07T11:54:53;6.57;;;5.38;;
39102;SDS011;24847;48.218;16.414;2023-05-07T11:59:57;5.97;;;5.38;;
39102;SDS011;24847;48.218;16.414;2023-05-07T12:05:03;6.68;;;6.07;;
39102;SDS011;24847;48.218;16.414;2023-05-07T12:10:07;4.88;;;4.47;;
39102;SDS011;24847;48.218;16.414;2023-05-07T12:15:10;5.35;;;4.85;;
39102;SDS011;24847;48.218;16.414;2023-05-07T12:20:16;6.07;;;5.47;;
39102;SDS011;24847;48.218;16.414;2023-05-07T12:25:19;5.95;;;5.45;;
39102;SDS011;24847;48.218;16.414;2023-05-07T12:30:21;5.57;;;5.07;;
39102;SDS011;24847;48.218;16.414;2023-05-07T12:35:28;15.05;;;13.55;;
39102;SDS011;24847;48.218;16.414;2023-05-07T12:40:36;12.82;;;11.63;;
39102;SDS011;24847;48.218;16.414;2023-05-07T12:45:40;8.00;;;7.25;;
39102;SDS011;24847;48.218;16.414;2023-05-07T12:50:44;6.72;;;6.07;;
39102;SDS011;24847;48.218;16.414;2023-05-07T12:55:51;5.03;;;4.60;;
39102;SDS011;24847;48.218;16.414;2023-05-07T13:00:55;4.25;;;3.85;;
39102;SDS011;24847;48.218;16.414;2023-05-07T13:06:02;4.47;;;4.07;;
39102;SDS011;24847;48.218;16.414;2023-05-07T13:11:07;3.90;;;3.50;;
39102;SDS011;24847;48.218;16.414;2023-05-07T13:16:10;4.70;;;3.85;;
39102;SDS011;24847;48.218;16.414;2023-05-07T13:21:14;4.30;;;3.90;;
39102;SDS011;24847;48.218;16.414;2023-05-07T13:26:16;3.72;;;3.42;;
39102;SDS011;24847;48.218;16.414;2023-05-07T13:31:19;4.30;;;3.90;;
39102;SDS011;24847;48.218;16.414;2023-05-07T13:36:22;4.35;;;3.95;;
39102;SDS011;24847;48.218;16.414;2023-05-07T13:41:25;4.32;;;3.92;;
39102;SDS011;24847;48.218;16.414;2023-05-07T13:46:27;3.92;;;3.63;;
39102;SDS011;24847;48.218;16.414;2023-05-07T13:51:31;3.63;;;3.22;;
39102;SDS011;24847;48.218;16.414;2023-05-07T13:56:33;4.22;;;3.55;;
39102;SDS011;24847;48.218;16.414;2023-05-07T14:01:35;3.80;;;3.50;;
39102;SDS011;24847;48.218;16.414;2023-05-07T14:06:39;3.80;;;3.50;;
39102;SDS011;24847;48.218;16.414;2023-05-07T14:11:41;3.67;;;3.10;;
39102;SDS011;24847;48.218;16.414;2023-05-07T14:16:44;3.15;;;2.85;;
39102;SDS011;24847;48.218;16.414;2023-05-07T14:21:48;3.70;;;3.30;;
39102;SDS011;24847;48.218;16.414;2023-05-07T14:26:50;2.90;;;2.65;;
39102;SDS011;24847;48.218;16.414;2023-05-07T14:31:52;2.72;;;2.53;;
39102;SDS011;24847;48.218;16.414;2023-05-07T14:36:56;2.83;;;2.63;;
39102;SDS011;24847;48.218;16.414;2023-05-07T14:41:59;2.92;;;2.63;;
39102;SDS011;24847;48.218;16.414;2023-05-07T14:47:01;3.42;;;2.30;;
39102;SDS011;24847;48.218;16.414;2023-05-07T14:52:05;2.40;;;2.20;;
39102;SDS011;24847;48.218;16.414;2023-05-07T14:57:09;2.30;;;2.10;;
39102;SDS011;24847;48.218;16.414;2023-05-07T15:02:13;1.95;;;1.83;;
39102;SDS011;24847;48.218;16.414;2023-05-07T15:07:17;5.32;;;1.90;;
39102;SDS011;24847;48.218;16.414;2023-05-07T15:12:19;2.20;;;2.00;;
39102;SDS011;24847;48.218;16.414;2023-05-07T15:17:22;2.33;;;2.13;;
39102;SDS011;24847;48.218;16.414;2023-05-07T15:22:25;2.00;;;1.90;;
39102;SDS011;24847;48.218;16.414;2023-05-07T15:27:28;3.05;;;1.80;;
39102;SDS011;24847;48.218;16.414;2023-05-07T15:32:30;3.85;;;2.70;;
39102;SDS011;24847;48.218;16.414;2023-05-07T15:37:34;2.60;;;2.40;;
39102;SDS011;24847;48.218;16.414;2023-05-07T15:42:36;2.47;;;2.28;;
39102;SDS011;24847;48.218;16.414;2023-05-07T15:47:38;2.35;;;2.15;;
39102;SDS011;24847;48.218;16.414;2023-05-07T15:52:44;2.30;;;2.10;;
39102;SDS011;24847;48.218;16.414;2023-05-07T15:57:47;3.20;;;2.33;;
39102;SDS011;24847;48.218;16.414;2023-05-07T16:02:49;2.45;;;2.25;;
39102;SDS011;24847;48.218;16.414;2023-05-07T16:07:53;2.63;;;2.42;;
39102;SDS011;24847;48.218;16.414;2023-05-07T16:12:57;2.20;;;1.98;;
39102;SDS011;24847;48.218;16.414;2023-05-07T16:17:59;2.47;;;2.28;;
39102;SDS011;24847;48.218;16.414;2023-05-07T16:23:03;2.30;;;2.13;;
39102;SDS011;24847;48.218;16.414;2023-05-07T16:28:05;2.80;;;2.60;;
39102;SDS011;24847;48.218;16.414;2023-05-07T16:33:08;2.75;;;2.55;;
39102;SDS011;24847;48.218;16.414;2023-05-07T16:38:11;3.10;;;2.85;;
39102;SDS011;24847;48.218;16.414;2023-05-07T16:43:13;3.42;;;3.13;;
39102;SDS011;24847;48.218;16.414;2023-05-07T16:48:16;3.63;;;3.33;;
39102;SDS011;24847;48.218;16.414;2023-05-07T16:53:19;3.67;;;2.88;;
39102;SDS011;24847;48.218;16.414;2023-05-07T16:58:21;3.10;;;2.88;;
39102;SDS011;24847;48.218;16.414;2023-05-07T17:03:24;3.10;;;2.80;;
39102;SDS011;24847;48.218;16.414;2023-05-07T17:08:27;3.00;;;2.80;;
39102;SDS011;24847;48.218;16.414;2023-05-07T17:13:29;2.95;;;2.72;;
39102;SDS011;24847;48.218;16.414;2023-05-07T17:18:32;3.40;;;3.10;;
39102;SDS011;24847;48.218;16.414;2023-05-07T17:23:36;3.78;;;3.47;;
39102;SDS011;24847;48.218;16.414;2023-05-07T17:28:38;3.35;;;3.10;;
39102;SDS011;24847;48.218;16.414;2023-05-07T17:33:41;3.15;;;2.85;;
39102;SDS011;24847;48.218;16.414;2023-05-07T17:38:45;3.15;;;2.92;;
39102;SDS011;24847;48.218;16.414;2023-05-07T17:43:48;2.65;;;2.45;;
39102;SDS011;24847;48.218;16.414;2023-05-07T17:48:50;2.90;;;2.70;;
39102;SDS011;24847;48.218;16.414;2023-05-07T17:53:54;5.15;;;2.55;;
39102;SDS011;24847;48.218;16.414;2023-05-07T17:58:56;2.50;;;2.30;;
39102;SDS011;24847;48.218;16.414;2023-05-07T18:03:58;2.90;;;2.70;;
39102;SDS011;24847;48.218;16.414;2023-05-07T18:09:03;2.80;;;2.60;;
39102;SDS011;24847;48.218;16.414;2023-05-07T18:14:06;2.50;;;2.30;;
39102;SDS011;24847;48.218;16.414;2023-05-07T18:19:08;3.00;;;2.50;;
39102;SDS011;24847;48.218;16.414;2023-05-07T18:24:12;2.95;;;2.70;;
39102;SDS011;24847;48.218;16.414;2023-05-07T18:29:15;3.58;;;2.92;;
39102;SDS011;24847;48.218;16.414;2023-05-07T18:34:17;3.60;;;2.90;;
39102;SDS011;24847;48.218;16.414;2023-05-07T18:39:21;3.88;;;3.20;;
39102;SDS011;24847;48.218;16.414;2023-05-07T18:44:23;3.45;;;2.97;;
39102;SDS011;24847;48.218;16.414;2023-05-07T18:49:26;4.00;;;3.42;;
39102;SDS011;24847;48.218;16.414;2023-05-07T18:54:30;3.58;;;3.28;;
39102;SDS011;24847;48.218;16.414;2023-05-07T18:59:32;4.45;;;4.05;;
39102;SDS011;24847;48.218;16.414;2023-05-07T19:04:35;4.97;;;4.00;;
39102;SDS011;24847;48.218;16.414;2023-05-07T19:09:40;4.78;;;4.38;;
39102;SDS011;24847;48.218;16.414;2023-05-07T19:14:43;5.65;;;4.65;;
39102;SDS011;24847;48.218;16.414;2023-05-07T19:19:45;4.35;;;3.95;;
39102;SDS011;24847;48.218;16.414;2023-05-07T19:24:50;4.10;;;3.70;;
39102;SDS011;24847;48.218;16.414;2023-05-07T19:29:52;3.88;;;3.58;;
39102;SDS011;24847;48.218;16.414;2023-05-07T19:34:54;3.97;;;3.53;;
39102;SDS011;24847;48.218;16.414;2023-05-07T19:39:58;4.50;;;4.10;;
39102;SDS011;24847;48.218;16.414;2023-05-07T19:45:04;5.07;;;4.68;;
39102;SDS011;24847;48.218;16.414;2023-05-07T19:50:08;4.68;;;4.28;;
39102;SDS011;24847;48.218;16.414;2023-05-07T19:55:13;6.47;;;5.85;;
39102;SDS011;24847;48.218;16.414;2023-05-07T20:00:15;6.05;;;5.28;;
39102;SDS011;24847;48.218;16.414;2023-05-07T20:05:20;5.40;;;4.90;;
39102;SDS011;24847;48.218;16.414;2023-05-07T20:10:24;6.05;;;5.47;;
39102;SDS011;24847;48.218;16.414;2023-05-07T20:15:27;5.60;;;5.10;;
39102;SDS011;24847;48.218;16.414;2023-05-07T20:20:29;6.75;;;6.15;;
39102;SDS011;24847;48.218;16.414;2023-05-07T20:25:34;7.10;;;6.43;;
39102;SDS011;24847;48.218;16.414;2023-05-07T20:30:36;7.30;;;6.60;;
39102;SDS011;24847;48.218;16.414;2023-05-07T20:35:39;7.82;;;7.03;;
39102;SDS011;24847;48.218;16.414;2023-05-07T20:40:43;8.55;;;7.65;;
39102;SDS011;24847;48.218;16.414;2023-05-07T20:45:46;8.88;;;8.07;;
39102;SDS011;24847;48.218;16.414;2023-05-07T20:50:48;8.90;;;8.00;;
39102;SDS011;24847;48.218;16.414;2023-05-07T20:55:52;8.40;;;7.55;;
39102;SDS011;24847;48.218;16.414;2023-05-07T21:00:54;8.70;;;7.85;;
39102;SDS011;24847;48.218;16.414;2023-05-07T21:05:57;8.70;;;7.80;;
39102;SDS011;24847;48.218;16.414;2023-05-07T21:11:01;9.30;;;8.40;;
39102;SDS011;24847;48.218;16.414;2023-05-07T21:16:05;9.02;;;8.20;;
39102;SDS011;24847;48.218;16.414;2023-05-07T21:21:07;8.30;;;7.50;;
39102;SDS011;24847;48.218;16.414;2023-05-07T21:26:15;9.15;;;8.13;;
39102;SDS011;24847;48.218;16.414;2023-05-07T21:31:19;8.40;;;7.68;;
39102;SDS011;24847;48.218;16.414;2023-05-07T21:36:21;8.40;;;7.07;;
39102;SDS011;24847;48.218;16.414;2023-05-07T21:41:25;6.68;;;6.07;;
39102;SDS011;24847;48.218;16.414;2023-05-07T21:46:27;6.93;;;6.22;;
39102;SDS011;24847;48.218;16.414;2023-05-07T21:51:31;6.45;;;5.88;;
39102;SDS011;24847;48.218;16.414;2023-05-07T21:56:35;6.85;;;6.22;;
39102;SDS011;24847;48.218;16.414;2023-05-07T22:01:38;7.35;;;6.72;;
39102;SDS011;24847;48.218;16.414;2023-05-07T22:06:40;7.53;;;6.82;;
39102;SDS011;24847;48.218;16.414;2023-05-07T22:11:44;6.72;;;6.13;;
39102;SDS011;24847;48.218;16.414;2023-05-07T22:16:46;7.78;;;7.00;;
39102;SDS011;24847;48.218;16.414;2023-05-07T22:21:48;7.18;;;6.47;;
39102;SDS011;24847;48.218;16.414;2023-05-07T22:26:52;6.97;;;6.38;;
39102;SDS011;24847;48.218;16.414;2023-05-07T22:31:54;6.97;;;6.28;;
39102;SDS011;24847;48.218;16.414;2023-05-07T22:36:57;7.43;;;6.57;;
39102;SDS011;24847;48.218;16.414;2023-05-07T22:42:00;8.85;;;7.63;;
39102;SDS011;24847;48.218;16.414;2023-05-07T22:47:03;7.72;;;7.00;;
39102;SDS011;24847;48.218;16.414;2023-05-07T22:52:05;7.88;;;7.13;;
39102;SDS011;24847;48.218;16.414;2023-05-07T22:57:09;6.78;;;6.15;;
39102;SDS011;24847;48.218;16.414;2023-05-07T23:02:11;7.07;;;6.38;;
39102;SDS011;24847;48.218;16.414;2023-05-07T23:07:13;7.80;;;6.00;;
39102;SDS011;24847;48.218;16.414;2023-05-07T23:12:17;6.38;;;5.78;;
39102;SDS011;24847;48.218;16.414;2023-05-07T23:17:19;6.20;;;5.60;;
39102;SDS011;24847;48.218;16.414;2023-05-07T23:22:22;6.13;;;5.55;;
39102;SDS011;24847;48.218;16.414;2023-05-07T23:27:25;5.82;;;5.32;;
39102;SDS011;24847;48.218;16.414;2023-05-07T23:32:29;5.82;;;5.32;;
39102;SDS011;24847;48.218;16.414;2023-05-07T23:37:31;6.72;;;6.13;;
39102;SDS011;24847;48.218;16.414;2023-05-07T23:42:35;5.72;;;5.15;;
39102;SDS011;24847;48.218;16.414;2023-05-07T23:47:37;5.50;;;5.00;;
39102;SDS011;24847;48.218;16.414;2023-05-07T23:52:39;6.13;;;5.53;;
39102;SDS011;24847;48.218;16.414;2023-05-07T23:57:43;5.80;;;5.28;;
